sensor_id;sensor_type;location;lat;lon;timestamp;P1;durP1;ratioP1;P2;durP2;ratioP2
30707;SDS011;17458;48.958;8.284;2024-02-21T00:02:40;7.82;;;4.45;;
30707;SDS011;17458;48.958;8.284;2024-02-21T00:05:24;10.35;;;4.18;;
30707;SDS011;17458;48.958;8.284;2024-02-21T00:08:08;14.05;;;4.07;;
30707;SDS011;17458;48.958;8.284;2024-02-21T00:10:52;17.50;;;4.75;;
30707;SDS011;17458;48.958;8.284;2024-02-21T00:13:36;13.57;;;4.30;;
30707;SDS011;17458;48.958;8.284;2024-02-21T00:16:20;14.85;;;4.35;;
30707;SDS011;17458;48.958;8.284;2024-02-21T00:19:04;12.35;;;3.50;;
30707;SDS011;17458;48.958;8.284;2024-02-21T00:21:48;10.80;;;3.92;;
30707;SDS011;17458;48.958;8.284;2024-02-21T00:24:32;12.23;;;4.45;;
30707;SDS011;17458;48.958;8.284;2024-02-21T00:27:16;7.57;;;3.28;;
30707;SDS011;17458;48.958;8.284;2024-02-21T00:30:00;9.18;;;3.55;;
30707;SDS011;17458;48.958;8.284;2024-02-21T00:32:44;12.25;;;4.40;;
30707;SDS011;17458;48.958;8.284;2024-02-21T00:35:28;15.82;;;4.03;;
30707;SDS011;17458;48.958;8.284;2024-02-21T00:38:12;8.15;;;3.72;;
30707;SDS011;17458;48.958;8.284;2024-02-21T00:40:56;6.15;;;3.42;;
30707;SDS011;17458;48.958;8.284;2024-02-21T00:43:41;8.32;;;3.53;;
30707;SDS011;17458;48.958;8.284;2024-02-21T00:46:25;9.07;;;3.97;;
30707;SDS011;17458;48.958;8.284;2024-02-21T00:49:09;7.05;;;3.72;;
30707;SDS011;17458;48.958;8.284;2024-02-21T00:51:53;10.38;;;3.20;;
30707;SDS011;17458;48.958;8.284;2024-02-21T00:54:37;10.18;;;3.88;;
30707;SDS011;17458;48.958;8.284;2024-02-21T00:57:21;5.20;;;3.40;;
30707;SDS011;17458;48.958;8.284;2024-02-21T01:00:05;6.38;;;4.15;;
30707;SDS011;17458;48.958;8.284;2024-02-21T01:02:51;12.13;;;3.63;;
30707;SDS011;17458;48.958;8.284;2024-02-21T01:05:35;12.48;;;3.75;;
30707;SDS011;17458;48.958;8.284;2024-02-21T01:08:19;5.72;;;3.83;;
30707;SDS011;17458;48.958;8.284;2024-02-21T01:11:03;16.38;;;3.90;;
30707;SDS011;17458;48.958;8.284;2024-02-21T01:13:47;6.10;;;3.58;;
30707;SDS011;17458;48.958;8.284;2024-02-21T01:16:31;5.82;;;3.22;;
30707;SDS011;17458;48.958;8.284;2024-02-21T01:19:15;13.82;;;3.95;;
30707;SDS011;17458;48.958;8.284;2024-02-21T01:21:59;7.05;;;4.00;;
30707;SDS011;17458;48.958;8.284;2024-02-21T01:24:43;6.47;;;3.88;;
30707;SDS011;17458;48.958;8.284;2024-02-21T01:27:27;16.55;;;4.15;;
30707;SDS011;17458;48.958;8.284;2024-02-21T01:30:11;6.07;;;3.58;;
30707;SDS011;17458;48.958;8.284;2024-02-21T01:32:55;6.35;;;4.15;;
30707;SDS011;17458;48.958;8.284;2024-02-21T01:35:39;14.90;;;3.97;;
30707;SDS011;17458;48.958;8.284;2024-02-21T01:38:23;10.07;;;3.65;;
30707;SDS011;17458;48.958;8.284;2024-02-21T01:41:07;13.65;;;5.50;;
30707;SDS011;17458;48.958;8.284;2024-02-21T01:43:51;10.85;;;4.15;;
30707;SDS011;17458;48.958;8.284;2024-02-21T01:46:35;6.30;;;3.60;;
30707;SDS011;17458;48.958;8.284;2024-02-21T01:49:20;10.75;;;3.95;;
30707;SDS011;17458;48.958;8.284;2024-02-21T01:52:05;7.72;;;3.60;;
30707;SDS011;17458;48.958;8.284;2024-02-21T01:54:49;6.95;;;3.40;;
30707;SDS011;17458;48.958;8.284;2024-02-21T01:57:34;10.38;;;5.20;;
30707;SDS011;17458;48.958;8.284;2024-02-21T02:00:18;9.32;;;4.03;;
30707;SDS011;17458;48.958;8.284;2024-02-21T02:03:03;11.95;;;3.75;;
30707;SDS011;17458;48.958;8.284;2024-02-21T02:05:49;6.63;;;3.60;;
30707;SDS011;17458;48.958;8.284;2024-02-21T02:08:33;7.43;;;3.72;;
30707;SDS011;17458;48.958;8.284;2024-02-21T02:11:17;8.93;;;3.72;;
30707;SDS011;17458;48.958;8.284;2024-02-21T02:14:02;10.52;;;3.47;;
30707;SDS011;17458;48.958;8.284;2024-02-21T02:16:46;7.00;;;3.08;;
30707;SDS011;17458;48.958;8.284;2024-02-21T02:19:33;9.05;;;3.13;;
30707;SDS011;17458;48.958;8.284;2024-02-21T02:22:19;6.93;;;3.25;;
30707;SDS011;17458;48.958;8.284;2024-02-21T02:25:08;10.70;;;3.65;;
30707;SDS011;17458;48.958;8.284;2024-02-21T02:27:53;12.60;;;3.10;;
30707;SDS011;17458;48.958;8.284;2024-02-21T02:30:37;11.10;;;3.67;;
30707;SDS011;17458;48.958;8.284;2024-02-21T02:33:21;12.93;;;3.88;;
30707;SDS011;17458;48.958;8.284;2024-02-21T02:36:05;11.80;;;3.70;;
30707;SDS011;17458;48.958;8.284;2024-02-21T02:38:50;14.27;;;3.85;;
30707;SDS011;17458;48.958;8.284;2024-02-21T02:41:37;12.82;;;3.83;;
30707;SDS011;17458;48.958;8.284;2024-02-21T02:44:21;8.52;;;3.30;;
30707;SDS011;17458;48.958;8.284;2024-02-21T02:47:04;6.22;;;3.95;;
30707;SDS011;17458;48.958;8.284;2024-02-21T02:49:49;6.82;;;3.70;;
30707;SDS011;17458;48.958;8.284;2024-02-21T02:52:34;14.23;;;4.18;;
30707;SDS011;17458;48.958;8.284;2024-02-21T02:55:18;5.50;;;2.80;;
30707;SDS011;17458;48.958;8.284;2024-02-21T02:58:02;14.38;;;3.85;;
30707;SDS011;17458;48.958;8.284;2024-02-21T03:00:47;10.48;;;3.28;;
30707;SDS011;17458;48.958;8.284;2024-02-21T03:03:31;8.40;;;3.60;;
30707;SDS011;17458;48.958;8.284;2024-02-21T03:06:15;13.52;;;3.30;;
30707;SDS011;17458;48.958;8.284;2024-02-21T03:08:58;10.05;;;3.70;;
30707;SDS011;17458;48.958;8.284;2024-02-21T03:11:44;8.50;;;3.58;;
30707;SDS011;17458;48.958;8.284;2024-02-21T03:14:28;6.25;;;4.57;;
30707;SDS011;17458;48.958;8.284;2024-02-21T03:17:13;5.22;;;3.55;;
30707;SDS011;17458;48.958;8.284;2024-02-21T03:19:57;8.95;;;3.30;;
30707;SDS011;17458;48.958;8.284;2024-02-21T03:22:41;12.65;;;4.55;;
30707;SDS011;17458;48.958;8.284;2024-02-21T03:25:25;13.85;;;3.78;;
30707;SDS011;17458;48.958;8.284;2024-02-21T03:28:09;8.60;;;3.17;;
30707;SDS011;17458;48.958;8.284;2024-02-21T03:30:53;6.25;;;3.53;;
30707;SDS011;17458;48.958;8.284;2024-02-21T03:33:37;4.38;;;3.75;;
30707;SDS011;17458;48.958;8.284;2024-02-21T03:36:21;15.52;;;4.05;;
30707;SDS011;17458;48.958;8.284;2024-02-21T03:39:05;3.72;;;2.92;;
30707;SDS011;17458;48.958;8.284;2024-02-21T03:41:51;11.88;;;3.75;;
30707;SDS011;17458;48.958;8.284;2024-02-21T03:44:36;8.45;;;3.75;;
30707;SDS011;17458;48.958;8.284;2024-02-21T03:47:20;5.88;;;3.63;;
30707;SDS011;17458;48.958;8.284;2024-02-21T03:50:04;15.90;;;3.55;;
30707;SDS011;17458;48.958;8.284;2024-02-21T03:52:50;10.23;;;3.72;;
30707;SDS011;17458;48.958;8.284;2024-02-21T03:55:33;11.23;;;3.00;;
30707;SDS011;17458;48.958;8.284;2024-02-21T03:58:17;6.35;;;3.38;;
30707;SDS011;17458;48.958;8.284;2024-02-21T04:01:01;15.75;;;4.18;;
30707;SDS011;17458;48.958;8.284;2024-02-21T04:03:46;9.13;;;3.95;;
30707;SDS011;17458;48.958;8.284;2024-02-21T04:06:29;12.85;;;4.35;;
30707;SDS011;17458;48.958;8.284;2024-02-21T04:09:13;8.10;;;3.72;;
30707;SDS011;17458;48.958;8.284;2024-02-21T04:11:57;7.63;;;3.63;;
30707;SDS011;17458;48.958;8.284;2024-02-21T04:14:41;5.03;;;4.20;;
30707;SDS011;17458;48.958;8.284;2024-02-21T04:17:25;6.05;;;3.53;;
30707;SDS011;17458;48.958;8.284;2024-02-21T04:20:14;7.40;;;3.20;;
30707;SDS011;17458;48.958;8.284;2024-02-21T04:23:00;4.75;;;3.17;;
30707;SDS011;17458;48.958;8.284;2024-02-21T04:25:44;8.23;;;3.97;;
30707;SDS011;17458;48.958;8.284;2024-02-21T04:28:27;6.30;;;3.80;;
30707;SDS011;17458;48.958;8.284;2024-02-21T04:31:11;9.38;;;3.58;;
30707;SDS011;17458;48.958;8.284;2024-02-21T04:33:56;15.18;;;4.90;;
30707;SDS011;17458;48.958;8.284;2024-02-21T04:36:40;8.85;;;3.63;;
30707;SDS011;17458;48.958;8.284;2024-02-21T04:39:24;9.10;;;4.50;;
30707;SDS011;17458;48.958;8.284;2024-02-21T04:42:08;10.38;;;3.63;;
30707;SDS011;17458;48.958;8.284;2024-02-21T04:44:52;11.82;;;3.90;;
30707;SDS011;17458;48.958;8.284;2024-02-21T04:47:36;4.57;;;3.63;;
30707;SDS011;17458;48.958;8.284;2024-02-21T04:50:20;10.32;;;4.50;;
30707;SDS011;17458;48.958;8.284;2024-02-21T04:53:04;11.38;;;4.00;;
30707;SDS011;17458;48.958;8.284;2024-02-21T04:55:48;17.33;;;4.82;;
30707;SDS011;17458;48.958;8.284;2024-02-21T04:58:32;8.65;;;3.80;;
30707;SDS011;17458;48.958;8.284;2024-02-21T05:01:16;12.60;;;4.97;;
30707;SDS011;17458;48.958;8.284;2024-02-21T05:04:00;4.93;;;4.35;;
30707;SDS011;17458;48.958;8.284;2024-02-21T05:06:44;11.93;;;4.55;;
30707;SDS011;17458;48.958;8.284;2024-02-21T05:09:28;7.53;;;3.97;;
30707;SDS011;17458;48.958;8.284;2024-02-21T05:12:12;8.30;;;4.20;;
30707;SDS011;17458;48.958;8.284;2024-02-21T05:14:56;9.32;;;4.68;;
30707;SDS011;17458;48.958;8.284;2024-02-21T05:17:40;14.23;;;4.63;;
30707;SDS011;17458;48.958;8.284;2024-02-21T05:20:24;15.05;;;4.90;;
30707;SDS011;17458;48.958;8.284;2024-02-21T05:23:08;9.02;;;4.18;;
30707;SDS011;17458;48.958;8.284;2024-02-21T05:25:52;6.55;;;4.00;;
30707;SDS011;17458;48.958;8.284;2024-02-21T05:28:36;17.38;;;4.18;;
30707;SDS011;17458;48.958;8.284;2024-02-21T05:31:20;8.73;;;4.65;;
30707;SDS011;17458;48.958;8.284;2024-02-21T05:34:04;6.80;;;3.78;;
30707;SDS011;17458;48.958;8.284;2024-02-21T05:36:48;11.13;;;4.22;;
30707;SDS011;17458;48.958;8.284;2024-02-21T05:39:36;11.35;;;3.83;;
30707;SDS011;17458;48.958;8.284;2024-02-21T05:42:19;8.52;;;4.22;;
30707;SDS011;17458;48.958;8.284;2024-02-21T05:45:04;11.80;;;3.95;;
30707;SDS011;17458;48.958;8.284;2024-02-21T05:47:48;6.10;;;4.15;;
30707;SDS011;17458;48.958;8.284;2024-02-21T05:50:32;15.25;;;4.80;;
30707;SDS011;17458;48.958;8.284;2024-02-21T05:53:16;7.00;;;3.97;;
30707;SDS011;17458;48.958;8.284;2024-02-21T05:56:00;7.00;;;4.13;;
30707;SDS011;17458;48.958;8.284;2024-02-21T05:58:45;14.07;;;4.15;;
30707;SDS011;17458;48.958;8.284;2024-02-21T06:01:29;21.08;;;4.32;;
30707;SDS011;17458;48.958;8.284;2024-02-21T06:04:12;11.40;;;5.00;;
30707;SDS011;17458;48.958;8.284;2024-02-21T06:06:56;9.07;;;3.70;;
30707;SDS011;17458;48.958;8.284;2024-02-21T06:09:44;7.38;;;4.45;;
30707;SDS011;17458;48.958;8.284;2024-02-21T06:12:29;8.55;;;3.92;;
30707;SDS011;17458;48.958;8.284;2024-02-21T06:15:13;6.88;;;3.80;;
30707;SDS011;17458;48.958;8.284;2024-02-21T06:18:00;12.68;;;4.60;;
30707;SDS011;17458;48.958;8.284;2024-02-21T06:20:51;13.75;;;3.67;;
30707;SDS011;17458;48.958;8.284;2024-02-21T06:23:36;8.55;;;4.45;;
30707;SDS011;17458;48.958;8.284;2024-02-21T06:26:20;13.18;;;4.15;;
30707;SDS011;17458;48.958;8.284;2024-02-21T06:29:04;9.05;;;4.15;;
30707;SDS011;17458;48.958;8.284;2024-02-21T06:31:49;5.45;;;4.20;;
30707;SDS011;17458;48.958;8.284;2024-02-21T06:34:33;8.85;;;4.50;;
30707;SDS011;17458;48.958;8.284;2024-02-21T06:37:17;6.97;;;4.35;;
30707;SDS011;17458;48.958;8.284;2024-02-21T06:40:01;9.23;;;3.47;;
30707;SDS011;17458;48.958;8.284;2024-02-21T06:42:47;5.55;;;4.35;;
30707;SDS011;17458;48.958;8.284;2024-02-21T06:45:31;5.63;;;4.45;;
30707;SDS011;17458;48.958;8.284;2024-02-21T06:48:16;5.50;;;4.22;;
30707;SDS011;17458;48.958;8.284;2024-02-21T06:51:00;9.45;;;5.03;;
30707;SDS011;17458;48.958;8.284;2024-02-21T06:53:44;8.18;;;4.30;;
30707;SDS011;17458;48.958;8.284;2024-02-21T06:56:28;5.45;;;4.18;;
30707;SDS011;17458;48.958;8.284;2024-02-21T06:59:12;12.52;;;5.25;;
30707;SDS011;17458;48.958;8.284;2024-02-21T07:01:59;6.93;;;4.35;;
30707;SDS011;17458;48.958;8.284;2024-02-21T07:04:44;11.68;;;5.35;;
30707;SDS011;17458;48.958;8.284;2024-02-21T07:07:28;8.10;;;3.72;;
30707;SDS011;17458;48.958;8.284;2024-02-21T07:10:13;5.38;;;4.32;;
30707;SDS011;17458;48.958;8.284;2024-02-21T07:12:58;9.15;;;5.13;;
30707;SDS011;17458;48.958;8.284;2024-02-21T07:15:42;11.85;;;4.47;;
30707;SDS011;17458;48.958;8.284;2024-02-21T07:18:25;14.38;;;5.57;;
30707;SDS011;17458;48.958;8.284;2024-02-21T07:21:09;13.68;;;4.63;;
30707;SDS011;17458;48.958;8.284;2024-02-21T07:23:53;6.43;;;4.10;;
30707;SDS011;17458;48.958;8.284;2024-02-21T07:26:40;8.73;;;4.60;;
30707;SDS011;17458;48.958;8.284;2024-02-21T07:29:26;13.55;;;5.35;;
30707;SDS011;17458;48.958;8.284;2024-02-21T07:32:11;25.13;;;5.15;;
30707;SDS011;17458;48.958;8.284;2024-02-21T07:34:56;6.60;;;4.15;;
30707;SDS011;17458;48.958;8.284;2024-02-21T07:37:43;7.90;;;3.83;;
30707;SDS011;17458;48.958;8.284;2024-02-21T07:40:27;12.35;;;5.53;;
30707;SDS011;17458;48.958;8.284;2024-02-21T07:43:11;11.55;;;5.40;;
30707;SDS011;17458;48.958;8.284;2024-02-21T07:45:55;9.45;;;4.68;;
30707;SDS011;17458;48.958;8.284;2024-02-21T07:48:39;8.77;;;4.85;;
30707;SDS011;17458;48.958;8.284;2024-02-21T07:51:27;6.05;;;4.32;;
30707;SDS011;17458;48.958;8.284;2024-02-21T07:54:12;8.93;;;4.03;;
30707;SDS011;17458;48.958;8.284;2024-02-21T07:56:56;8.98;;;4.43;;
30707;SDS011;17458;48.958;8.284;2024-02-21T07:59:40;8.80;;;4.47;;
30707;SDS011;17458;48.958;8.284;2024-02-21T08:02:24;7.70;;;3.80;;
30707;SDS011;17458;48.958;8.284;2024-02-21T08:05:08;5.90;;;3.97;;
30707;SDS011;17458;48.958;8.284;2024-02-21T08:07:52;10.30;;;4.05;;
30707;SDS011;17458;48.958;8.284;2024-02-21T08:10:36;9.88;;;3.92;;
30707;SDS011;17458;48.958;8.284;2024-02-21T08:13:23;10.30;;;4.78;;
30707;SDS011;17458;48.958;8.284;2024-02-21T08:16:07;10.18;;;4.38;;
30707;SDS011;17458;48.958;8.284;2024-02-21T08:18:51;10.82;;;4.90;;
30707;SDS011;17458;48.958;8.284;2024-02-21T08:21:35;7.53;;;3.85;;
30707;SDS011;17458;48.958;8.284;2024-02-21T08:24:19;7.13;;;3.35;;
30707;SDS011;17458;48.958;8.284;2024-02-21T08:27:03;10.45;;;3.88;;
30707;SDS011;17458;48.958;8.284;2024-02-21T08:29:47;9.70;;;3.13;;
30707;SDS011;17458;48.958;8.284;2024-02-21T08:32:31;8.57;;;3.58;;
30707;SDS011;17458;48.958;8.284;2024-02-21T08:35:15;6.55;;;4.00;;
30707;SDS011;17458;48.958;8.284;2024-02-21T08:37:59;9.25;;;3.85;;
30707;SDS011;17458;48.958;8.284;2024-02-21T08:40:43;14.10;;;3.75;;
30707;SDS011;17458;48.958;8.284;2024-02-21T08:43:27;6.32;;;2.83;;
30707;SDS011;17458;48.958;8.284;2024-02-21T08:46:11;6.57;;;2.72;;
30707;SDS011;17458;48.958;8.284;2024-02-21T08:48:56;3.67;;;3.03;;
30707;SDS011;17458;48.958;8.284;2024-02-21T08:51:40;6.65;;;4.43;;
30707;SDS011;17458;48.958;8.284;2024-02-21T08:54:24;7.75;;;3.70;;
30707;SDS011;17458;48.958;8.284;2024-02-21T08:57:08;9.48;;;3.47;;
30707;SDS011;17458;48.958;8.284;2024-02-21T08:59:52;9.70;;;3.10;;
30707;SDS011;17458;48.958;8.284;2024-02-21T09:02:39;5.05;;;3.10;;
30707;SDS011;17458;48.958;8.284;2024-02-21T09:05:24;6.45;;;3.20;;
30707;SDS011;17458;48.958;8.284;2024-02-21T09:08:08;8.52;;;3.88;;
30707;SDS011;17458;48.958;8.284;2024-02-21T09:10:52;9.73;;;3.25;;
30707;SDS011;17458;48.958;8.284;2024-02-21T09:13:37;6.10;;;3.13;;
30707;SDS011;17458;48.958;8.284;2024-02-21T09:16:21;5.10;;;2.80;;
30707;SDS011;17458;48.958;8.284;2024-02-21T09:19:06;8.13;;;2.55;;
30707;SDS011;17458;48.958;8.284;2024-02-21T09:21:54;8.95;;;3.08;;
30707;SDS011;17458;48.958;8.284;2024-02-21T09:24:38;11.10;;;3.60;;
30707;SDS011;17458;48.958;8.284;2024-02-21T09:27:22;8.85;;;3.17;;
30707;SDS011;17458;48.958;8.284;2024-02-21T09:30:06;8.52;;;3.30;;
30707;SDS011;17458;48.958;8.284;2024-02-21T09:32:50;8.68;;;2.83;;
30707;SDS011;17458;48.958;8.284;2024-02-21T09:35:34;6.38;;;3.38;;
30707;SDS011;17458;48.958;8.284;2024-02-21T09:38:18;7.65;;;2.97;;
30707;SDS011;17458;48.958;8.284;2024-02-21T09:41:09;9.65;;;2.65;;
30707;SDS011;17458;48.958;8.284;2024-02-21T09:43:55;12.23;;;3.25;;
30707;SDS011;17458;48.958;8.284;2024-02-21T09:49:34;11.05;;;2.58;;
30707;SDS011;17458;48.958;8.284;2024-02-21T09:52:21;8.00;;;3.33;;
30707;SDS011;17458;48.958;8.284;2024-02-21T09:55:06;5.47;;;2.90;;
30707;SDS011;17458;48.958;8.284;2024-02-21T09:57:54;7.13;;;2.45;;
30707;SDS011;17458;48.958;8.284;2024-02-21T10:00:41;7.50;;;3.80;;
30707;SDS011;17458;48.958;8.284;2024-02-21T10:03:25;6.68;;;3.30;;
30707;SDS011;17458;48.958;8.284;2024-02-21T10:06:10;9.38;;;2.95;;
30707;SDS011;17458;48.958;8.284;2024-02-21T10:08:54;12.20;;;2.95;;
30707;SDS011;17458;48.958;8.284;2024-02-21T10:11:38;6.78;;;2.53;;
30707;SDS011;17458;48.958;8.284;2024-02-21T10:14:23;8.32;;;2.80;;
30707;SDS011;17458;48.958;8.284;2024-02-21T10:17:07;6.80;;;2.85;;
30707;SDS011;17458;48.958;8.284;2024-02-21T10:19:53;13.15;;;2.78;;
30707;SDS011;17458;48.958;8.284;2024-02-21T10:22:37;7.03;;;2.50;;
30707;SDS011;17458;48.958;8.284;2024-02-21T10:25:23;8.27;;;2.30;;
30707;SDS011;17458;48.958;8.284;2024-02-21T10:28:07;8.45;;;2.38;;
30707;SDS011;17458;48.958;8.284;2024-02-21T10:30:51;10.88;;;2.53;;
30707;SDS011;17458;48.958;8.284;2024-02-21T10:33:35;9.68;;;2.35;;
30707;SDS011;17458;48.958;8.284;2024-02-21T10:36:21;8.82;;;2.78;;
30707;SDS011;17458;48.958;8.284;2024-02-21T10:39:05;10.25;;;2.08;;
30707;SDS011;17458;48.958;8.284;2024-02-21T10:41:49;5.55;;;2.10;;
30707;SDS011;17458;48.958;8.284;2024-02-21T10:44:38;9.38;;;2.28;;
30707;SDS011;17458;48.958;8.284;2024-02-21T10:47:23;8.35;;;2.38;;
30707;SDS011;17458;48.958;8.284;2024-02-21T10:50:09;10.77;;;2.35;;
30707;SDS011;17458;48.958;8.284;2024-02-21T10:53:04;4.80;;;2.15;;
30707;SDS011;17458;48.958;8.284;2024-02-21T10:55:58;5.40;;;2.53;;
30707;SDS011;17458;48.958;8.284;2024-02-21T10:58:54;4.70;;;1.92;;
30707;SDS011;17458;48.958;8.284;2024-02-21T11:01:41;6.30;;;2.53;;
30707;SDS011;17458;48.958;8.284;2024-02-21T11:04:25;8.95;;;2.40;;
30707;SDS011;17458;48.958;8.284;2024-02-21T11:07:11;5.05;;;2.63;;
30707;SDS011;17458;48.958;8.284;2024-02-21T11:09:55;9.18;;;2.00;;
30707;SDS011;17458;48.958;8.284;2024-02-21T11:12:39;5.30;;;2.45;;
30707;SDS011;17458;48.958;8.284;2024-02-21T11:15:26;3.95;;;2.22;;
30707;SDS011;17458;48.958;8.284;2024-02-21T11:18:11;4.47;;;2.95;;
30707;SDS011;17458;48.958;8.284;2024-02-21T11:20:55;14.10;;;2.78;;
30707;SDS011;17458;48.958;8.284;2024-02-21T11:23:39;7.78;;;2.80;;
30707;SDS011;17458;48.958;8.284;2024-02-21T11:26:23;16.13;;;2.85;;
30707;SDS011;17458;48.958;8.284;2024-02-21T11:29:07;3.35;;;2.00;;
30707;SDS011;17458;48.958;8.284;2024-02-21T11:31:53;14.43;;;2.50;;
30707;SDS011;17458;48.958;8.284;2024-02-21T11:34:37;9.25;;;2.38;;
30707;SDS011;17458;48.958;8.284;2024-02-21T11:37:24;7.05;;;2.80;;
30707;SDS011;17458;48.958;8.284;2024-02-21T11:40:10;9.88;;;1.98;;
30707;SDS011;17458;48.958;8.284;2024-02-21T11:42:58;4.75;;;2.55;;
30707;SDS011;17458;48.958;8.284;2024-02-21T11:45:43;7.25;;;2.33;;
30707;SDS011;17458;48.958;8.284;2024-02-21T11:48:27;4.35;;;2.20;;
30707;SDS011;17458;48.958;8.284;2024-02-21T11:51:11;8.35;;;2.15;;
30707;SDS011;17458;48.958;8.284;2024-02-21T11:54:10;3.60;;;2.42;;
30707;SDS011;17458;48.958;8.284;2024-02-21T11:56:54;2.95;;;2.05;;
30707;SDS011;17458;48.958;8.284;2024-02-21T11:59:39;5.57;;;2.45;;
30707;SDS011;17458;48.958;8.284;2024-02-21T12:02:24;6.85;;;2.47;;
30707;SDS011;17458;48.958;8.284;2024-02-21T12:05:10;5.15;;;2.58;;
30707;SDS011;17458;48.958;8.284;2024-02-21T12:07:54;4.05;;;2.15;;
30707;SDS011;17458;48.958;8.284;2024-02-21T12:10:38;3.80;;;1.73;;
30707;SDS011;17458;48.958;8.284;2024-02-21T12:13:22;9.55;;;2.80;;
30707;SDS011;17458;48.958;8.284;2024-02-21T12:16:07;4.05;;;2.33;;
30707;SDS011;17458;48.958;8.284;2024-02-21T12:18:52;3.75;;;2.28;;
30707;SDS011;17458;48.958;8.284;2024-02-21T12:21:40;9.07;;;3.25;;
30707;SDS011;17458;48.958;8.284;2024-02-21T12:24:28;7.85;;;2.40;;
30707;SDS011;17458;48.958;8.284;2024-02-21T12:27:12;9.45;;;2.72;;
30707;SDS011;17458;48.958;8.284;2024-02-21T12:29:57;4.32;;;2.10;;
30707;SDS011;17458;48.958;8.284;2024-02-21T12:32:41;14.40;;;2.35;;
30707;SDS011;17458;48.958;8.284;2024-02-21T12:35:25;5.85;;;2.30;;
30707;SDS011;17458;48.958;8.284;2024-02-21T12:38:10;4.95;;;2.13;;
30707;SDS011;17458;48.958;8.284;2024-02-21T12:40:55;5.57;;;2.38;;
30707;SDS011;17458;48.958;8.284;2024-02-21T12:43:40;6.55;;;2.97;;
30707;SDS011;17458;48.958;8.284;2024-02-21T12:46:24;6.30;;;2.80;;
30707;SDS011;17458;48.958;8.284;2024-02-21T12:49:08;3.15;;;2.05;;
30707;SDS011;17458;48.958;8.284;2024-02-21T12:51:52;2.90;;;1.83;;
30707;SDS011;17458;48.958;8.284;2024-02-21T12:54:36;10.00;;;2.40;;
30707;SDS011;17458;48.958;8.284;2024-02-21T12:57:20;3.53;;;1.90;;
30707;SDS011;17458;48.958;8.284;2024-02-21T13:00:05;7.25;;;2.50;;
30707;SDS011;17458;48.958;8.284;2024-02-21T13:02:52;4.68;;;1.83;;
30707;SDS011;17458;48.958;8.284;2024-02-21T13:05:37;5.85;;;2.28;;
30707;SDS011;17458;48.958;8.284;2024-02-21T13:08:22;4.25;;;1.98;;
30707;SDS011;17458;48.958;8.284;2024-02-21T13:11:06;7.00;;;2.10;;
30707;SDS011;17458;48.958;8.284;2024-02-21T13:13:50;5.88;;;2.17;;
30707;SDS011;17458;48.958;8.284;2024-02-21T13:16:34;9.40;;;2.85;;
30707;SDS011;17458;48.958;8.284;2024-02-21T13:19:22;2.17;;;1.98;;
30707;SDS011;17458;48.958;8.284;2024-02-21T13:22:06;7.15;;;2.72;;
30707;SDS011;17458;48.958;8.284;2024-02-21T13:24:50;5.95;;;2.17;;
30707;SDS011;17458;48.958;8.284;2024-02-21T13:27:35;9.98;;;2.70;;
30707;SDS011;17458;48.958;8.284;2024-02-21T13:30:19;3.70;;;2.28;;
30707;SDS011;17458;48.958;8.284;2024-02-21T13:33:03;6.85;;;2.40;;
30707;SDS011;17458;48.958;8.284;2024-02-21T13:35:48;6.70;;;2.20;;
30707;SDS011;17458;48.958;8.284;2024-02-21T13:38:31;6.80;;;3.08;;
30707;SDS011;17458;48.958;8.284;2024-02-21T13:41:15;5.95;;;2.30;;
30707;SDS011;17458;48.958;8.284;2024-02-21T13:44:00;4.13;;;2.33;;
30707;SDS011;17458;48.958;8.284;2024-02-21T13:46:44;5.03;;;2.30;;
30707;SDS011;17458;48.958;8.284;2024-02-21T13:49:28;2.15;;;1.90;;
30707;SDS011;17458;48.958;8.284;2024-02-21T13:52:14;4.75;;;2.20;;
30707;SDS011;17458;48.958;8.284;2024-02-21T13:54:58;9.48;;;2.45;;
30707;SDS011;17458;48.958;8.284;2024-02-21T13:57:42;5.03;;;2.55;;
30707;SDS011;17458;48.958;8.284;2024-02-21T14:00:26;10.90;;;2.80;;
30707;SDS011;17458;48.958;8.284;2024-02-21T14:03:11;7.28;;;2.13;;
30707;SDS011;17458;48.958;8.284;2024-02-21T14:05:55;4.03;;;2.10;;
30707;SDS011;17458;48.958;8.284;2024-02-21T14:08:40;7.68;;;2.85;;
30707;SDS011;17458;48.958;8.284;2024-02-21T14:11:23;7.57;;;2.20;;
30707;SDS011;17458;48.958;8.284;2024-02-21T14:14:07;6.25;;;2.67;;
30707;SDS011;17458;48.958;8.284;2024-02-21T14:16:51;5.45;;;2.25;;
30707;SDS011;17458;48.958;8.284;2024-02-21T14:19:35;11.18;;;2.80;;
30707;SDS011;17458;48.958;8.284;2024-02-21T14:22:19;5.53;;;2.60;;
30707;SDS011;17458;48.958;8.284;2024-02-21T14:25:04;8.32;;;2.78;;
30707;SDS011;17458;48.958;8.284;2024-02-21T14:27:51;6.88;;;2.42;;
30707;SDS011;17458;48.958;8.284;2024-02-21T14:30:35;5.25;;;2.47;;
30707;SDS011;17458;48.958;8.284;2024-02-21T14:33:19;4.00;;;2.60;;
30707;SDS011;17458;48.958;8.284;2024-02-21T14:36:03;5.03;;;2.97;;
30707;SDS011;17458;48.958;8.284;2024-02-21T14:38:48;4.30;;;2.20;;
30707;SDS011;17458;48.958;8.284;2024-02-21T14:41:32;7.63;;;2.75;;
30707;SDS011;17458;48.958;8.284;2024-02-21T14:44:18;6.40;;;2.70;;
30707;SDS011;17458;48.958;8.284;2024-02-21T14:47:02;7.68;;;2.83;;
30707;SDS011;17458;48.958;8.284;2024-02-21T14:49:46;8.20;;;2.08;;
30707;SDS011;17458;48.958;8.284;2024-02-21T14:52:31;5.65;;;2.55;;
30707;SDS011;17458;48.958;8.284;2024-02-21T14:55:16;3.83;;;2.50;;
30707;SDS011;17458;48.958;8.284;2024-02-21T14:58:00;3.08;;;2.67;;
30707;SDS011;17458;48.958;8.284;2024-02-21T15:00:47;3.38;;;2.47;;
30707;SDS011;17458;48.958;8.284;2024-02-21T15:03:31;2.47;;;2.25;;
30707;SDS011;17458;48.958;8.284;2024-02-21T15:06:15;5.13;;;2.50;;
30707;SDS011;17458;48.958;8.284;2024-02-21T15:08:59;5.18;;;2.70;;
30707;SDS011;17458;48.958;8.284;2024-02-21T15:11:43;3.70;;;2.13;;
30707;SDS011;17458;48.958;8.284;2024-02-21T15:14:27;3.28;;;2.20;;
30707;SDS011;17458;48.958;8.284;2024-02-21T15:17:11;3.38;;;1.90;;
30707;SDS011;17458;48.958;8.284;2024-02-21T15:19:56;7.72;;;2.42;;
30707;SDS011;17458;48.958;8.284;2024-02-21T15:22:42;4.72;;;2.28;;
30707;SDS011;17458;48.958;8.284;2024-02-21T15:25:26;3.50;;;2.45;;
30707;SDS011;17458;48.958;8.284;2024-02-21T15:28:10;6.22;;;2.40;;
30707;SDS011;17458;48.958;8.284;2024-02-21T15:30:55;4.72;;;2.13;;
30707;SDS011;17458;48.958;8.284;2024-02-21T15:33:40;5.63;;;2.10;;
30707;SDS011;17458;48.958;8.284;2024-02-21T15:36:24;9.30;;;3.13;;
30707;SDS011;17458;48.958;8.284;2024-02-21T15:39:09;6.43;;;2.53;;
30707;SDS011;17458;48.958;8.284;2024-02-21T15:41:54;8.13;;;2.30;;
30707;SDS011;17458;48.958;8.284;2024-02-21T15:44:40;10.35;;;2.92;;
30707;SDS011;17458;48.958;8.284;2024-02-21T15:47:24;8.05;;;2.50;;
30707;SDS011;17458;48.958;8.284;2024-02-21T15:50:08;3.20;;;2.45;;
30707;SDS011;17458;48.958;8.284;2024-02-21T15:52:54;4.75;;;2.63;;
30707;SDS011;17458;48.958;8.284;2024-02-21T15:55:38;5.15;;;2.70;;
30707;SDS011;17458;48.958;8.284;2024-02-21T15:58:22;4.32;;;3.08;;
30707;SDS011;17458;48.958;8.284;2024-02-21T16:01:08;10.80;;;3.05;;
30707;SDS011;17458;48.958;8.284;2024-02-21T16:03:55;7.40;;;3.65;;
30707;SDS011;17458;48.958;8.284;2024-02-21T16:06:41;15.10;;;3.10;;
30707;SDS011;17458;48.958;8.284;2024-02-21T16:09:30;5.28;;;2.78;;
30707;SDS011;17458;48.958;8.284;2024-02-21T16:12:14;5.38;;;2.75;;
30707;SDS011;17458;48.958;8.284;2024-02-21T16:14:59;8.85;;;3.20;;
30707;SDS011;17458;48.958;8.284;2024-02-21T16:17:43;11.75;;;3.97;;
30707;SDS011;17458;48.958;8.284;2024-02-21T16:20:27;6.85;;;2.88;;
30707;SDS011;17458;48.958;8.284;2024-02-21T16:23:11;10.85;;;3.55;;
30707;SDS011;17458;48.958;8.284;2024-02-21T16:25:57;4.80;;;2.80;;
30707;SDS011;17458;48.958;8.284;2024-02-21T16:28:41;7.28;;;3.80;;
30707;SDS011;17458;48.958;8.284;2024-02-21T16:31:25;6.03;;;3.22;;